Time;durP1;ratioP1;P1;durP2;ratioP2;P2;SDS_P1;SDS_P2;PMS_P1;PMS_P2;Temp;Humidity;BMP_temperature;BMP_pressure;BME280_temperature;BME280_humidity;BME280_pressure;Samples;Min_cycle;Max_cycle;Signal;HPM_P1;HPM_P2
2022/06/16 00:01:41;;;;;;;4.73;4.13;;;22.40;57.50;;;;;;5056263;28;20465;-48
2022/06/16 00:04:08;;;;;;;5.20;4.70;;;22.40;57.70;;;;;;5040271;28;20453;-47
2022/06/16 00:06:37;;;;;;;5.30;4.83;;;22.30;57.80;;;;;;5056819;28;20476;-47
2022/06/16 00:09:04;;;;;;;5.23;4.73;;;22.30;57.90;;;;;;5038992;28;20469;-48
2022/06/16 00:11:31;;;;;;;6.47;5.00;;;22.30;58.10;;;;;;5043506;28;20963;-47
2022/06/16 00:13:58;;;;;;;6.07;5.50;;;22.20;58.40;;;;;;5042432;28;20462;-47
2022/06/16 00:16:25;;;;;;;10.00;4.37;;;22.20;58.60;;;;;;5037252;28;20557;-48
2022/06/16 00:18:52;;;;;;;7.70;5.20;;;22.20;58.80;;;;;;5052937;28;20484;-47
2022/06/16 00:21:19;;;;;;;5.90;4.63;;;22.20;58.90;;;;;;5038720;28;20499;-48
2022/06/16 00:23:46;;;;;;;6.80;4.57;;;22.10;58.70;;;;;;5057712;28;20458;-48
2022/06/16 00:26:15;;;;;;;4.70;4.07;;;22.10;58.60;;;;;;5060962;28;20812;-48
2022/06/16 00:28:43;;;;;;;5.50;5.00;;;22.10;58.70;;;;;;5024622;28;20457;-47
2022/06/16 00:31:12;;;;;;;4.80;4.33;;;22.00;58.80;;;;;;5061829;28;20566;-48
2022/06/16 00:33:40;;;;;;;5.17;4.67;;;22.00;58.70;;;;;;5055545;28;20500;-47
2022/06/16 00:36:08;;;;;;;5.13;4.20;;;22.00;58.50;;;;;;5045862;28;20464;-47
2022/06/16 00:38:35;;;;;;;4.50;4.10;;;21.90;58.70;;;;;;5058048;28;20480;-47
2022/06/16 00:41:02;;;;;;;6.90;4.73;;;21.90;58.90;;;;;;5058737;28;20907;-47
2022/06/16 00:43:29;;;;;;;4.63;4.20;;;21.80;59.10;;;;;;5058111;28;20457;-47
2022/06/16 00:46:01;;;;;;;5.30;4.80;;;21.70;59.20;;;;;;5045925;28;20542;-47
2022/06/16 00:48:34;;;;;;;5.07;4.40;;;21.70;59.40;;;;;;5058600;28;20463;-48
2022/06/16 00:51:09;;;;;;;8.60;5.27;;;21.60;59.60;;;;;;5058948;28;20454;-47
2022/06/16 00:53:39;;;;;;;5.30;4.80;;;21.60;59.80;;;;;;5057538;28;20457;-48
2022/06/16 00:56:10;;;;;;;6.63;4.67;;;21.60;60.00;;;;;;5060194;28;20812;-47
2022/06/16 00:58:41;;;;;;;5.50;5.00;;;21.60;59.90;;;;;;5043071;28;20584;-47
2022/06/16 01:01:09;;;;;;;6.90;4.90;;;21.50;59.80;;;;;;5045307;28;20580;-47
2022/06/16 01:06:27;;;;;;;4.93;4.43;;;21.50;59.60;;;;;;5057295;28;20560;-47
2022/06/16 01:09:02;;;;;;;9.63;5.00;;;21.50;59.50;;;;;;5058646;28;20445;-47
2022/06/16 01:15:06;;;;;;;5.17;4.67;;;21.40;60.10;;;;;;5058473;28;20876;-48
2022/06/16 01:17:38;;;;;;;5.63;4.93;;;21.30;60.30;;;;;;5058712;28;20570;-47
2022/06/16 01:20:37;;;;;;;6.63;4.50;;;21.30;60.50;;;;;;5058889;28;20469;-47
2022/06/16 01:23:42;;;;;;;5.43;4.80;;;21.20;60.50;;;;;;5059631;28;20470;-47
2022/06/16 01:26:15;;;;;;;5.67;5.17;;;21.20;60.70;;;;;;5058696;28;20462;-47
2022/06/16 01:29:15;;;;;;;4.80;4.40;;;21.20;60.60;;;;;;5058107;28;20464;-47
2022/06/16 01:32:06;;;;;;;5.77;5.17;;;21.10;60.80;;;;;;5043594;28;20546;-47
2022/06/16 01:34:43;;;;;;;6.10;5.20;;;21.10;60.80;;;;;;5044248;28;20457;-47
2022/06/16 01:37:16;;;;;;;5.27;4.07;;;21.00;60.80;;;;;;5057681;28;20457;-47
2022/06/16 01:39:57;;;;;;;6.37;4.67;;;21.00;60.80;;;;;;5044531;28;20504;-47
2022/06/16 01:42:34;;;;;;;4.70;4.30;;;20.90;61.00;;;;;;5054958;28;20454;-47
2022/06/16 01:45:23;;;;;;;5.67;4.50;;;20.90;61.30;;;;;;5058958;28;20877;-48
2022/06/16 01:47:51;;;;;;;4.73;4.17;;;20.90;61.60;;;;;;5057519;28;20465;-47
2022/06/16 01:50:34;;;;;;;5.63;5.00;;;20.90;61.70;;;;;;5044380;28;20458;-47
2022/06/16 01:53:07;;;;;;;4.80;4.37;;;20.90;61.80;;;;;;5054491;28;20545;-48
2022/06/16 01:55:40;;;;;;;4.70;4.20;;;20.90;61.90;;;;;;5035872;28;20527;-47
2022/06/16 01:58:12;;;;;;;17.20;5.60;;;20.90;62.00;;;;;;5038959;28;20488;-47
2022/06/16 02:00:43;;;;;;;7.00;4.60;;;20.80;62.10;;;;;;5056218;28;20540;-47
2022/06/16 02:03:21;;;;;;;5.47;4.93;;;20.80;62.00;;;;;;5056968;28;20837;-47
2022/06/16 02:06:02;;;;;;;5.30;4.27;;;20.80;62.00;;;;;;5058762;28;20471;-47
2022/06/16 02:08:34;;;;;;;5.17;4.33;;;20.80;62.20;;;;;;5044796;28;21020;-47
2022/06/16 02:11:14;;;;;;;6.53;4.57;;;20.80;62.20;;;;;;5059186;28;20548;-47
2022/06/16 02:14:08;;;;;;;4.93;4.53;;;20.80;62.30;;;;;;5058758;28;20557;-47
2022/06/16 02:16:38;;;;;;;5.47;4.93;;;20.70;62.50;;;;;;5010165;28;20552;-47
2022/06/16 02:19:10;;;;;;;5.60;4.57;;;20.70;62.60;;;;;;5048072;28;20458;-47
2022/06/16 02:21:48;;;;;;;6.20;5.03;;;20.70;62.70;;;;;;5056023;28;21097;-47
2022/06/16 02:24:26;;;;;;;5.63;4.57;;;20.70;62.70;;;;;;5058334;28;20449;-46
2022/06/16 02:26:56;;;;;;;5.30;4.80;;;20.70;62.90;;;;;;5054354;28;21025;-46
2022/06/16 02:29:41;;;;;;;5.40;4.90;;;20.70;62.90;;;;;;5056466;28;20493;-46
2022/06/16 02:32:29;;;;;;;5.17;4.73;;;20.70;62.90;;;;;;5048817;28;20462;-46
2022/06/16 02:35:05;;;;;;;5.30;4.80;;;20.70;62.60;;;;;;5049331;28;20934;-46
2022/06/16 02:37:50;;;;;;;5.37;4.67;;;20.70;62.40;;;;;;5049464;28;20459;-46
2022/06/16 02:40:36;;;;;;;6.27;4.60;;;20.80;62.30;;;;;;5048125;28;20957;-46
2022/06/16 02:43:26;;;;;;;5.73;4.70;;;20.80;62.40;;;;;;5051283;28;20457;-46
2022/06/16 02:46:30;;;;;;;6.83;4.90;;;20.70;62.50;;;;;;5033382;28;20553;-46
2022/06/16 02:49:05;;;;;;;5.80;5.27;;;20.70;62.50;;;;;;5056962;28;20457;-46
2022/06/16 02:51:40;;;;;;;5.90;4.40;;;20.70;62.60;;;;;;5049312;28;20469;-46
2022/06/16 02:54:27;;;;;;;6.30;3.87;;;20.70;62.60;;;;;;5048765;28;20460;-46
2022/06/16 02:57:05;;;;;;;5.87;5.37;;;20.70;62.60;;;;;;5034194;28;20464;-46
2022/06/16 02:59:53;;;;;;;5.10;4.60;;;20.70;62.60;;;;;;5052827;28;20527;-46
2022/06/16 03:02:22;;;;;;;4.70;4.30;;;20.60;62.70;;;;;;5057246;28;20489;-46
2022/06/16 03:04:53;;;;;;;7.13;5.60;;;20.60;62.70;;;;;;5059645;28;20527;-46
2022/06/16 03:07:21;;;;;;;6.00;4.70;;;20.60;62.60;;;;;;5055424;28;20826;-46
2022/06/16 03:09:48;;;;;;;5.30;4.33;;;20.60;62.50;;;;;;5037644;28;20601;-46
2022/06/16 03:12:15;;;;;;;4.83;4.43;;;20.50;62.70;;;;;;5054453;28;20537;-46
2022/06/16 03:14:43;;;;;;;6.40;4.83;;;20.50;62.90;;;;;;5024340;28;20458;-46
2022/06/16 03:17:11;;;;;;;7.20;5.37;;;20.50;62.90;;;;;;5054784;28;20476;-46
2022/06/16 03:19:39;;;;;;;5.73;5.17;;;20.50;63.10;;;;;;5053414;28;20484;-46
2022/06/16 03:22:06;;;;;;;6.00;5.50;;;20.40;63.30;;;;;;5055280;28;20564;-46
2022/06/16 03:24:34;;;;;;;4.77;4.37;;;20.50;63.40;;;;;;5038470;28;20816;-46
2022/06/16 03:27:00;;;;;;;5.60;5.10;;;20.40;63.50;;;;;;5052310;28;20450;-46
2022/06/16 03:29:28;;;;;;;5.10;4.60;;;20.40;63.50;;;;;;5034086;28;20546;-46
2022/06/16 03:31:55;;;;;;;7.07;5.07;;;20.40;63.60;;;;;;5038411;28;21392;-46
2022/06/16 03:34:23;;;;;;;6.63;4.67;;;20.40;63.70;;;;;;5054730;28;20494;-46
2022/06/16 03:36:51;;;;;;;6.63;5.10;;;20.40;63.70;;;;;;5045052;28;20470;-46
2022/06/16 03:39:18;;;;;;;5.37;4.87;;;20.40;63.70;;;;;;5057008;28;20592;-46
2022/06/16 03:41:45;;;;;;;5.40;4.90;;;20.30;63.70;;;;;;5055757;28;20493;-46
2022/06/16 03:44:12;;;;;;;5.27;4.77;;;20.30;63.80;;;;;;5035529;28;20488;-46
2022/06/16 03:46:39;;;;;;;4.87;4.47;;;20.30;63.80;;;;;;5038221;28;20458;-45
2022/06/16 03:49:06;;;;;;;4.80;4.40;;;20.30;63.80;;;;;;5056435;28;20950;-46
2022/06/16 03:51:33;;;;;;;5.40;5.00;;;20.30;63.80;;;;;;5036590;28;20516;-46
2022/06/16 03:54:00;;;;;;;5.00;4.53;;;20.30;63.70;;;;;;5054830;28;20516;-46
2022/06/16 03:56:27;;;;;;;4.93;4.53;;;20.30;63.60;;;;;;5042917;28;20461;-46
2022/06/16 03:58:56;;;;;;;8.53;5.00;;;20.30;63.70;;;;;;5055284;28;20457;-46
2022/06/16 04:01:23;;;;;;;5.10;4.60;;;20.30;63.80;;;;;;5036774;28;20875;-46
2022/06/16 04:03:59;;;;;;;5.07;4.47;;;20.30;64.00;;;;;;5056678;28;20553;-46
2022/06/16 04:06:28;;;;;;;5.73;5.07;;;20.30;64.10;;;;;;5038056;28;20949;-46
2022/06/16 04:08:55;;;;;;;5.27;4.03;;;20.30;64.00;;;;;;5064049;28;20450;-46
2022/06/16 04:11:28;;;;;;;6.57;5.10;;;20.30;64.00;;;;;;5048043;28;20552;-46
2022/06/16 04:14:00;;;;;;;6.07;5.23;;;20.30;64.00;;;;;;5063304;28;20534;-46
2022/06/16 04:16:29;;;;;;;5.93;5.43;;;20.30;64.00;;;;;;5056354;28;20474;-46
2022/06/16 04:18:56;;;;;;;6.23;4.83;;;20.30;64.00;;;;;;5053763;28;20488;-46
2022/06/16 04:21:23;;;;;;;5.63;5.03;;;20.30;64.00;;;;;;5058041;28;20500;-46
2022/06/16 04:23:50;;;;;;;5.90;4.80;;;20.30;64.00;;;;;;5065533;28;20938;-46
2022/06/16 04:26:17;;;;;;;5.53;5.03;;;20.30;64.10;;;;;;5059499;28;20454;-46
2022/06/16 04:28:45;;;;;;;5.83;4.20;;;20.30;64.10;;;;;;5023326;28;20480;-46
2022/06/16 04:31:12;;;;;;;6.07;5.00;;;20.40;64.10;;;;;;5043360;28;20478;-46
2022/06/16 04:33:39;;;;;;;5.97;5.37;;;20.40;63.80;;;;;;5048429;28;20461;-46
2022/06/16 04:36:34;;;;;;;5.20;4.70;;;20.40;62.70;;;;;;5049610;28;20489;-45
2022/06/16 04:39:28;;;;;;;5.73;4.60;;;20.50;62.70;;;;;;5040137;28;20492;-46
2022/06/16 04:42:22;;;;;;;4.60;4.20;;;20.50;62.30;;;;;;5060757;28;20472;-46
2022/06/16 04:45:17;;;;;;;4.80;3.70;;;20.60;62.70;;;;;;5051158;28;20441;-46
2022/06/16 04:48:12;;;;;;;8.53;3.90;;;20.60;61.70;;;;;;5044475;28;20951;-46
2022/06/16 04:51:07;;;;;;;4.93;4.30;;;20.70;60.00;;;;;;5044306;28;20970;-46
2022/06/16 04:54:01;;;;;;;5.10;4.60;;;20.80;59.30;;;;;;5037741;28;20825;-46
2022/06/16 04:56:56;;;;;;;4.20;3.80;;;20.90;58.80;;;;;;5041436;28;20805;-46
2022/06/16 04:59:50;;;;;;;7.43;3.83;;;21.10;57.80;;;;;;5039897;28;20473;-46
2022/06/16 05:02:45;;;;;;;4.20;3.73;;;21.20;57.60;;;;;;5030933;28;20966;-46
2022/06/16 05:53:59;;;;;;;4.90;3.57;;;22.00;55.90;;;;;;5039482;28;20465;-46
2022/06/16 05:56:25;;;;;;;5.77;3.93;;;22.10;55.60;;;;;;5024504;28;20834;-46
2022/06/16 05:58:52;;;;;;;4.17;3.63;;;22.10;55.70;;;;;;5044454;28;20497;-46
2022/06/16 06:01:19;;;;;;;4.00;3.70;;;22.20;55.20;;;;;;5036775;28;20501;-46
2022/06/16 06:03:46;;;;;;;3.70;3.40;;;22.20;55.20;;;;;;5047630;28;20461;-46
2022/06/16 06:06:13;;;;;;;4.77;3.30;;;22.20;55.20;;;;;;5061549;28;20454;-46
2022/06/16 06:17:12;;;;;;;3.70;3.40;;;22.50;54.80;;;;;;5060248;28;20461;-46
2022/06/16 06:19:40;;;;;;;6.50;3.73;;;22.50;54.50;;;;;;5056279;28;20488;-46
2022/06/16 06:22:16;;;;;;;5.73;3.70;;;22.60;55.10;;;;;;5058825;28;20555;-46
2022/06/16 06:24:44;;;;;;;5.43;3.77;;;22.70;54.00;;;;;;5061694;28;20838;-46
2022/06/16 06:27:23;;;;;;;4.63;4.20;;;22.70;53.80;;;;;;5057185;28;20458;-46
2022/06/16 06:29:50;;;;;;;3.73;3.40;;;22.80;54.10;;;;;;5054523;28;20950;-46
2022/06/16 06:32:19;;;;;;;5.07;3.60;;;22.80;54.20;;;;;;5054669;28;20453;-48
2022/06/16 06:34:46;;;;;;;4.90;4.50;;;22.80;53.70;;;;;;5045825;28;20473;-47
2022/06/16 06:37:15;;;;;;;3.57;3.27;;;22.80;53.80;;;;;;5057097;28;20544;-47
2022/06/16 06:39:42;;;;;;;4.33;3.93;;;22.90;53.60;;;;;;5062162;28;20539;-48
2022/06/16 06:42:10;;;;;;;3.93;3.47;;;22.90;54.00;;;;;;5060995;28;20490;-47
2022/06/16 06:44:37;;;;;;;3.80;3.47;;;23.00;53.90;;;;;;5059662;28;20465;-46
2022/06/16 06:47:04;;;;;;;3.43;3.13;;;23.20;53.10;;;;;;5060562;28;20502;-46
2022/06/16 06:49:32;;;;;;;5.40;3.10;;;23.30;52.30;;;;;;5057578;28;20480;-46
2022/06/16 06:51:59;;;;;;;7.03;3.27;;;23.40;51.80;;;;;;5056232;28;20521;-46
2022/06/16 06:54:29;;;;;;;5.93;3.30;;;23.40;52.20;;;;;;5049968;28;20480;-46
2022/06/16 06:56:56;;;;;;;6.00;3.80;;;23.50;52.30;;;;;;5054286;28;20510;-46
2022/06/16 06:59:23;;;;;;;4.60;3.50;;;23.60;51.30;;;;;;5054152;28;20508;-46
2022/06/16 07:02:19;;;;;;;3.30;3.00;;;23.70;51.00;;;;;;5038103;28;20503;-46
2022/06/16 07:04:47;;;;;;;3.97;3.50;;;23.80;50.70;;;;;;5056781;28;20458;-46
2022/06/16 07:07:19;;;;;;;4.07;3.70;;;23.90;51.00;;;;;;5042235;28;20457;-46
2022/06/16 07:09:46;;;;;;;3.90;3.60;;;24.20;50.30;;;;;;5061810;28;20453;-46
2022/06/16 07:12:13;;;;;;;3.50;3.10;;;24.30;50.20;;;;;;5061662;28;21001;-46
2022/06/16 07:14:48;;;;;;;7.20;3.83;;;24.40;49.30;;;;;;5047530;28;20540;-47
2022/06/16 07:17:18;;;;;;;3.80;3.40;;;24.60;48.90;;;;;;5071043;28;20460;-48
2022/06/16 07:19:48;;;;;;;8.70;4.17;;;24.70;48.60;;;;;;5055124;28;20462;-48
2022/06/16 07:22:17;;;;;;;5.03;4.60;;;24.90;48.40;;;;;;5058176;28;20894;-47
2022/06/16 07:24:44;;;;;;;4.57;4.17;;;25.00;48.50;;;;;;5041340;28;20549;-48
2022/06/16 07:27:11;;;;;;;3.90;3.60;;;25.10;48.70;;;;;;5062655;28;20445;-47
2022/06/16 07:29:38;;;;;;;4.07;3.53;;;25.20;48.20;;;;;;5059167;28;20683;-48
2022/06/16 07:32:11;;;;;;;5.37;3.63;;;25.40;47.20;;;;;;5045491;28;20465;-50
2022/06/16 07:34:47;;;;;;;3.70;3.40;;;25.50;47.20;;;;;;5052509;28;20496;-48
2022/06/16 07:37:15;;;;;;;3.93;3.50;;;25.60;47.30;;;;;;5065228;28;20468;-49
2022/06/16 07:39:42;;;;;;;5.40;3.90;;;25.80;47.00;;;;;;5064972;28;20993;-47
2022/06/16 07:42:10;;;;;;;3.83;3.40;;;26.00;46.80;;;;;;5071458;28;20938;-48
2022/06/16 07:44:38;;;;;;;3.73;3.10;;;26.10;47.00;;;;;;5053239;28;20468;-47
2022/06/16 07:47:06;;;;;;;4.33;3.63;;;26.30;46.40;;;;;;5068784;28;20997;-47
2022/06/16 07:49:33;;;;;;;5.07;3.57;;;26.40;45.80;;;;;;5059852;28;20441;-48
2022/06/16 07:52:00;;;;;;;5.00;4.10;;;26.50;45.40;;;;;;5074615;28;20539;-47
2022/06/16 07:54:29;;;;;;;4.63;3.23;;;26.60;45.00;;;;;;5059411;28;20442;-48
2022/06/16 07:57:17;;;;;;;3.93;3.60;;;26.80;44.60;;;;;;5074613;28;20441;-47
2022/06/16 07:59:52;;;;;;;4.70;3.40;;;27.00;44.20;;;;;;5071027;28;20485;-47
2022/06/16 08:02:19;;;;;;;3.70;2.93;;;27.00;44.40;;;;;;5056660;28;20492;-47
2022/06/16 08:04:47;;;;;;;3.77;3.27;;;27.10;44.00;;;;;;5048574;28;20445;-48
2022/06/16 08:07:14;;;;;;;5.43;3.63;;;27.20;44.10;;;;;;5062990;28;20949;-48
2022/06/16 08:09:41;;;;;;;3.80;3.50;;;27.30;43.80;;;;;;5062726;28;20563;-48
2022/06/16 08:12:10;;;;;;;5.00;3.53;;;27.40;42.50;;;;;;5063716;28;20887;-48
2022/06/16 08:14:42;;;;;;;4.53;3.67;;;27.50;42.10;;;;;;5063179;28;21096;-48
2022/06/16 08:17:16;;;;;;;5.20;3.37;;;27.50;42.60;;;;;;5050965;28;20243;-48
2022/06/16 08:19:43;;;;;;;3.80;3.47;;;27.60;43.00;;;;;;5065302;28;20943;-48
2022/06/16 08:22:12;;;;;;;4.80;4.30;;;27.70;42.40;;;;;;5064268;28;20483;-48
2022/06/16 08:24:40;;;;;;;6.60;3.60;;;27.70;42.40;;;;;;5063763;28;20947;-48
2022/06/16 08:27:07;;;;;;;3.50;3.20;;;27.80;42.00;;;;;;5062746;28;20995;-48
2022/06/16 08:29:37;;;;;;;4.20;3.77;;;27.80;42.40;;;;;;5064715;28;20445;-48
2022/06/16 08:32:04;;;;;;;4.97;3.60;;;27.90;42.80;;;;;;5058870;28;20613;-48
2022/06/16 08:34:31;;;;;;;4.53;3.63;;;27.90;42.80;;;;;;5034490;28;20207;-48
2022/06/16 08:36:57;;;;;;;4.97;3.47;;;28.00;42.50;;;;;;5062829;28;20691;-48
2022/06/16 08:39:24;;;;;;;6.10;3.53;;;28.10;42.30;;;;;;5060172;28;20962;-48
2022/06/16 08:42:07;;;;;;;4.90;4.23;;;28.30;41.80;;;;;;5028738;28;20499;-48
2022/06/16 08:44:46;;;;;;;6.33;4.10;;;28.40;41.50;;;;;;5061739;28;20234;-48
2022/06/16 08:47:40;;;;;;;3.93;3.53;;;28.50;41.40;;;;;;5062774;28;20203;-48
2022/06/16 08:50:36;;;;;;;4.83;3.53;;;28.60;41.20;;;;;;5062410;28;20208;-48
2022/06/16 08:53:20;;;;;;;3.83;3.20;;;28.80;40.70;;;;;;5021715;28;20547;-48
2022/06/16 08:56:04;;;;;;;5.53;4.17;;;28.80;41.00;;;;;;5058701;28;20220;-48
2022/06/16 08:58:54;;;;;;;4.50;4.00;;;28.80;40.90;;;;;;5061775;28;20253;-50
2022/06/16 09:01:34;;;;;;;4.23;3.93;;;28.80;41.40;;;;;;5038923;28;20246;-48
2022/06/16 09:04:07;;;;;;;4.30;3.90;;;28.80;40.90;;;;;;5044314;28;20206;-48
2022/06/16 09:06:55;;;;;;;5.80;3.80;;;28.80;40.40;;;;;;5057907;28;20205;-48
2022/06/16 09:12:56;;;;;;;3.93;3.50;;;28.80;39.50;;;;;;5062624;28;20255;-48
2022/06/16 09:15:31;;;;;;;8.17;3.77;;;28.90;40.10;;;;;;5041581;28;20298;-48
2022/06/16 09:18:20;;;;;;;6.40;3.97;;;29.10;40.00;;;;;;5045018;28;20713;-48
2022/06/16 09:20:52;;;;;;;5.87;3.50;;;29.30;40.20;;;;;;5041778;28;20296;-48
2022/06/16 09:23:55;;;;;;;4.17;3.60;;;29.50;38.10;;;;;;5062386;28;20207;-48
2022/06/16 09:26:43;;;;;;;6.70;3.87;;;29.60;37.70;;;;;;5056453;28;20230;-49
2022/06/16 09:29:33;;;;;;;5.15;3.25;;;29.80;36.80;;;;;;5059668;28;20218;-49
2022/06/16 09:32:20;;;;;;;4.88;3.95;;;29.90;37.60;;;;;;5060776;28;20586;-49
2022/06/16 09:35:00;;;;;;;4.47;3.20;;;30.00;37.10;;;;;;5063510;28;20222;-49
2022/06/16 09:37:37;;;;;;;4.53;3.65;;;30.20;36.50;;;;;;5062616;28;20206;-49
2022/06/16 09:40:26;;;;;;;6.18;3.28;;;30.30;35.90;;;;;;5042147;28;20206;-49
2022/06/16 09:42:56;;;;;;;6.47;4.47;;;30.40;35.50;;;;;;5052796;28;20245;-49
2022/06/16 09:45:38;;;;;;;4.57;4.20;;;30.40;34.80;;;;;;5046258;28;20245;-49
2022/06/16 09:48:11;;;;;;;3.80;3.50;;;30.60;35.10;;;;;;5056984;28;20199;-49
2022/06/16 09:51:31;;;;;;;4.45;3.60;;;30.70;35.60;;;;;;5058254;28;20729;-49
2022/06/16 09:54:16;;;;;;;5.82;3.78;;;30.90;34.60;;;;;;4984351;28;20329;-49
2022/06/16 09:57:00;;;;;;;5.68;3.30;;;30.80;35.10;;;;;;4987246;28;20709;-49
2022/06/16 09:59:50;;;;;;;4.38;3.67;;;30.80;35.70;;;;;;5020216;28;20691;-49
2022/06/16 10:02:20;;;;;;;4.25;3.22;;;30.80;36.50;;;;;;5039571;28;20303;-49
2022/06/16 10:04:54;;;;;;;4.95;3.28;;;30.80;36.10;;;;;;5052754;28;20207;-49
2022/06/16 10:07:43;;;;;;;3.28;2.78;;;31.00;35.90;;;;;;5042330;28;20218;-49
2022/06/16 10:10:46;;;;;;;5.03;3.63;;;31.10;35.10;;;;;;5057489;28;20207;-49
2022/06/16 10:13:13;;;;;;;7.35;3.78;;;31.10;35.40;;;;;;5038400;28;20476;-49
2022/06/16 10:15:55;;;;;;;3.83;3.33;;;31.20;35.80;;;;;;5059568;28;20213;-49
2022/06/16 10:18:23;;;;;;;3.78;3.00;;;31.20;36.50;;;;;;5037556;28;24376;-49
2022/06/16 10:20:49;;;;;;;4.18;3.78;;;31.10;36.30;;;;;;5050851;28;23031;-49
2022/06/16 10:23:27;;;;;;;3.38;2.83;;;31.20;36.80;;;;;;5046469;28;20230;-49
2022/06/16 10:26:03;;;;;;;6.82;3.45;;;31.40;36.20;;;;;;5060674;28;20211;-49
2022/06/16 10:28:48;;;;;;;4.63;3.17;;;31.50;35.30;;;;;;5057504;28;20704;-49
2022/06/16 10:31:35;;;;;;;4.18;3.78;;;31.50;34.90;;;;;;5060330;28;20582;-49
2022/06/16 10:34:04;;;;;;;3.65;3.45;;;31.50;35.50;;;;;;5047474;28;20257;-49
2022/06/16 10:36:32;;;;;;;4.63;3.40;;;31.50;35.50;;;;;;5061610;28;20291;-49
2022/06/16 10:39:16;;;;;;;4.20;2.85;;;31.50;35.10;;;;;;5043718;28;20779;-49
2022/06/16 10:42:12;;;;;;;3.53;3.22;;;31.50;34.70;;;;;;5046337;28;20252;-49
2022/06/16 10:44:40;;;;;;;3.25;2.95;;;31.30;35.10;;;;;;5059496;28;20219;-49
2022/06/16 10:47:19;;;;;;;8.45;3.15;;;31.20;35.70;;;;;;5059289;28;20290;-49
2022/06/16 10:49:47;;;;;;;2.60;2.33;;;31.00;34.70;;;;;;5039168;28;20202;-49
2022/06/16 10:52:30;;;;;;;5.63;3.20;;;30.80;33.00;;;;;;5044562;28;20214;-49
2022/06/16 10:55:19;;;;;;;3.25;2.65;;;30.50;34.20;;;;;;5053500;28;20223;-49
2022/06/16 10:58:01;;;;;;;4.30;3.55;;;30.20;34.80;;;;;;5041034;28;20716;-49
2022/06/16 11:00:33;;;;;;;4.20;3.47;;;29.80;35.70;;;;;;5043051;28;20231;-49
2022/06/16 11:03:10;;;;;;;7.80;3.30;;;29.60;37.10;;;;;;5057424;28;20225;-49
2022/06/16 11:05:51;;;;;;;3.50;3.20;;;29.40;37.70;;;;;;5045091;28;20207;-48
2022/06/16 11:08:20;;;;;;;4.40;2.80;;;29.10;37.20;;;;;;5061079;28;20217;-48
2022/06/16 11:11:09;;;;;;;4.00;3.30;;;29.00;36.90;;;;;;5054757;28;20203;-48
2022/06/16 11:13:43;;;;;;;3.10;2.90;;;28.80;36.30;;;;;;5053896;28;20211;-49
2022/06/16 11:16:21;;;;;;;4.77;3.30;;;28.70;36.40;;;;;;5038628;28;20676;-49
2022/06/16 11:18:53;;;;;;;3.23;3.03;;;28.60;37.40;;;;;;5057126;28;20228;-49
2022/06/16 11:21:25;;;;;;;3.23;2.80;;;28.50;37.90;;;;;;5033861;28;21249;-49
2022/06/16 11:23:54;;;;;;;4.47;3.60;;;28.50;37.20;;;;;;5047598;28;20206;-49
2022/06/16 11:26:28;;;;;;;5.13;3.57;;;28.40;38.70;;;;;;5056633;28;20211;-49
2022/06/16 11:29:21;;;;;;;5.70;2.80;;;28.30;38.30;;;;;;5054514;28;20199;-49
2022/06/16 11:32:02;;;;;;;4.90;3.37;;;28.30;37.50;;;;;;5041287;28;20652;-49
2022/06/16 11:34:29;;;;;;;3.20;2.90;;;28.20;36.60;;;;;;5048914;28;20217;-49
2022/06/16 11:37:07;;;;;;;13.30;3.53;;;28.20;36.40;;;;;;5041452;28;20237;-49
2022/06/16 11:39:55;;;;;;;2.80;2.60;;;28.20;37.30;;;;;;5059296;28;20937;-49
2022/06/16 11:42:35;;;;;;;5.07;2.70;;;28.10;36.40;;;;;;5056729;28;20222;-49
2022/06/16 11:45:24;;;;;;;3.00;2.53;;;28.10;35.60;;;;;;5053343;28;20210;-49
2022/06/16 11:48:05;;;;;;;3.97;2.83;;;28.10;36.60;;;;;;5053110;28;20467;-49
2022/06/16 11:50:58;;;;;;;1.97;1.83;;;28.10;33.50;;;;;;5050405;28;20213;-49
2022/06/16 11:53:44;;;;;;;3.67;2.30;;;28.10;29.80;;;;;;5045185;28;20229;-49
2022/06/16 11:56:23;;;;;;;5.00;2.30;;;28.10;30.50;;;;;;5056617;28;20611;-49
2022/06/16 11:59:16;;;;;;;2.30;2.10;;;28.00;30.40;;;;;;5042164;28;20665;-49
2022/06/16 12:01:57;;;;;;;1.70;1.60;;;28.00;31.30;;;;;;5055758;28;20461;-49
2022/06/16 12:04:39;;;;;;;2.80;2.00;;;28.00;30.20;;;;;;5059578;28;20681;-49
2022/06/16 12:07:24;;;;;;;2.63;2.17;;;28.00;30.80;;;;;;5049592;28;20207;-49
2022/06/16 12:10:05;;;;;;;2.23;2.03;;;28.00;31.30;;;;;;5056956;28;20206;-49
2022/06/16 12:12:40;;;;;;;3.00;2.70;;;28.00;32.20;;;;;;5042851;28;21220;-49
2022/06/16 12:15:07;;;;;;;5.40;2.20;;;28.00;33.50;;;;;;5051142;28;20551;-49
2022/06/16 12:17:55;;;;;;;2.27;2.07;;;28.00;34.30;;;;;;5038685;28;20552;-49
2022/06/16 12:20:28;;;;;;;1.90;1.77;;;28.00;33.00;;;;;;5048667;28;20845;-49
2022/06/16 12:23:43;;;;;;;2.43;1.97;;;28.00;32.90;;;;;;5042195;28;20225;-49
2022/06/16 12:26:09;;;;;;;4.30;2.40;;;28.00;33.10;;;;;;5042923;28;20463;-49
2022/06/16 12:28:50;;;;;;;2.17;2.00;;;28.00;33.20;;;;;;5051778;28;20302;-49
2022/06/16 12:31:24;;;;;;;3.47;3.17;;;28.00;33.00;;;;;;5056802;28;20856;-49
2022/06/16 12:34:16;;;;;;;3.23;2.20;;;28.00;33.40;;;;;;5050860;28;20230;-49
2022/06/16 12:36:50;;;;;;;2.57;2.37;;;28.10;33.50;;;;;;5054827;28;20937;-49
2022/06/16 12:39:29;;;;;;;3.00;2.70;;;28.10;33.30;;;;;;5054913;28;20210;-49
2022/06/16 12:42:02;;;;;;;2.83;2.60;;;28.10;34.40;;;;;;5063321;28;20221;-50
2022/06/16 12:45:11;;;;;;;4.07;2.23;;;28.10;35.10;;;;;;5057450;28;20297;-49
2022/06/16 12:47:47;;;;;;;2.17;2.03;;;28.10;33.90;;;;;;5028500;28;20209;-49
2022/06/16 12:50:18;;;;;;;2.77;2.47;;;28.10;33.40;;;;;;5052035;28;20470;-49
2022/06/16 12:53:08;;;;;;;3.97;1.83;;;28.10;32.60;;;;;;5054523;28;20239;-49
2022/06/16 12:56:04;;;;;;;1.80;1.70;;;28.20;31.10;;;;;;5047664;28;20218;-49
2022/06/16 12:58:50;;;;;;;2.60;2.40;;;28.20;32.10;;;;;;5062552;28;20207;-50
2022/06/16 13:01:18;;;;;;;2.40;1.87;;;28.20;33.80;;;;;;5058963;28;20234;-49
2022/06/16 13:04:10;;;;;;;2.40;1.63;;;28.30;33.60;;;;;;5043504;28;22000;-49
2022/06/16 13:06:40;;;;;;;2.40;2.20;;;28.30;32.90;;;;;;5037432;28;20199;-50
2022/06/16 13:09:11;;;;;;;3.07;2.13;;;28.30;33.80;;;;;;5061789;28;20214;-49
2022/06/16 13:12:01;;;;;;;2.87;2.30;;;28.30;34.60;;;;;;5045490;28;20215;-49
2022/06/16 13:14:49;;;;;;;2.30;2.10;;;28.40;35.50;;;;;;5031625;28;20656;-49
2022/06/16 13:17:16;;;;;;;2.97;2.70;;;28.40;34.70;;;;;;5061757;28;20227;-49
2022/06/16 13:19:50;;;;;;;2.60;2.20;;;28.50;34.90;;;;;;5061995;28;20549;-49
2022/06/16 13:22:31;;;;;;;2.60;2.40;;;28.50;35.40;;;;;;5045408;28;20222;-50
2022/06/16 13:25:00;;;;;;;3.30;2.10;;;28.60;35.20;;;;;;5042477;28;20199;-49
2022/06/16 13:27:42;;;;;;;2.63;2.20;;;28.70;35.80;;;;;;5057375;28;20203;-49
2022/06/16 13:30:17;;;;;;;2.00;1.90;;;28.70;33.70;;;;;;5059254;28;20243;-49
2022/06/16 13:32:47;;;;;;;3.53;1.97;;;28.70;33.00;;;;;;5040515;28;20210;-49
2022/06/16 13:35:14;;;;;;;1.90;1.80;;;28.70;32.90;;;;;;5058427;28;20209;-49
2022/06/16 13:37:46;;;;;;;5.07;1.80;;;28.70;32.00;;;;;;5062636;28;20206;-49
2022/06/16 13:40:22;;;;;;;2.87;2.03;;;28.70;31.80;;;;;;5058607;28;20569;-49
2022/06/16 13:42:53;;;;;;;1.83;1.50;;;28.70;31.50;;;;;;5046950;28;20260;-49
2022/06/16 13:45:30;;;;;;;1.80;1.70;;;28.60;32.40;;;;;;5064663;28;20203;-49
2022/06/16 13:48:16;;;;;;;2.23;1.80;;;28.60;31.60;;;;;;5058953;28;20710;-49
2022/06/16 13:50:58;;;;;;;1.90;1.70;;;28.70;30.90;;;;;;5059432;28;20991;-49
2022/06/16 13:53:42;;;;;;;3.20;2.03;;;28.60;31.50;;;;;;5057648;28;20583;-49
2022/06/16 13:56:21;;;;;;;2.30;1.83;;;28.60;32.00;;;;;;5062957;28;20207;-49
2022/06/16 13:59:25;;;;;;;1.70;1.60;;;28.60;31.40;;;;;;5060053;28;20294;-49
2022/06/16 14:02:10;;;;;;;2.40;1.50;;;28.60;31.20;;;;;;5059581;28;20207;-49
2022/06/16 14:04:44;;;;;;;1.53;1.30;;;28.60;31.50;;;;;;5059290;28;20207;-49
2022/06/16 14:07:14;;;;;;;4.47;1.67;;;28.60;30.30;;;;;;5055507;28;20648;-49
2022/06/16 14:10:12;;;;;;;3.00;1.53;;;28.60;29.90;;;;;;5063581;28;20213;-49
2022/06/16 14:13:18;;;;;;;1.63;1.53;;;28.60;30.70;;;;;;5057394;28;20305;-49
2022/06/16 14:15:53;;;;;;;4.40;2.13;;;28.60;32.20;;;;;;5049502;28;20711;-49
2022/06/16 14:18:23;;;;;;;2.00;1.87;;;28.60;32.40;;;;;;5060373;28;20293;-50
2022/06/16 14:21:12;;;;;;;1.87;1.70;;;28.60;34.00;;;;;;5059668;28;20641;-49
2022/06/16 14:23:53;;;;;;;3.50;2.40;;;28.60;34.20;;;;;;5059009;28;20226;-49
2022/06/16 14:26:25;;;;;;;4.77;1.80;;;28.70;34.80;;;;;;5054138;28;20195;-49
2022/06/16 14:29:00;;;;;;;2.33;1.90;;;28.70;34.70;;;;;;5058408;28;20286;-49
2022/06/16 14:31:35;;;;;;;1.77;1.67;;;28.80;32.50;;;;;;5043320;28;20199;-49
2022/06/16 14:34:20;;;;;;;4.10;1.90;;;28.90;32.30;;;;;;5058193;28;20202;-49
2022/06/16 14:36:57;;;;;;;2.00;1.90;;;28.90;33.30;;;;;;5029491;28;20796;-49
2022/06/16 14:39:31;;;;;;;2.30;2.00;;;28.90;32.90;;;;;;5059082;28;20199;-50